Time;durP1;ratioP1;P1;durP2;ratioP2;P2;SDS_P1;SDS_P2;PMS_P1;PMS_P2;Temp;Humidity;BMP_temperature;BMP_pressure;BME280_temperature;BME280_humidity;BME280_pressure;Samples;Min_cycle;Max_cycle;Signal;HPM_P1;HPM_P2
2022/03/31 00:00:49;;;;;;;15.75;3.88;;;;;;;13.86;74.54;101146.94;2107573;28;20144;-79
2022/03/31 00:02:12;;;;;;;8.85;3.38;;;;;;;13.83;74.58;101142.50;2102611;28;20074;-79
2022/03/31 00:03:36;;;;;;;18.77;4.20;;;;;;;13.82;74.60;101137.19;2104153;28;20040;-80
2022/03/31 00:04:59;;;;;;;14.25;3.22;;;;;;;13.82;74.59;101145.13;2109371;28;20473;-78
2022/03/31 00:06:21;;;;;;;10.68;2.88;;;;;;;13.79;74.75;101142.44;2102199;28;20463;-79
2022/03/31 00:07:50;;;;;;;11.13;3.63;;;;;;;13.80;74.94;101141.56;2105563;28;20527;-79
2022/03/31 00:09:14;;;;;;;8.77;2.90;;;;;;;13.79;74.92;101139.78;2110523;28;20059;-79
2022/03/31 00:10:38;;;;;;;4.82;2.08;;;;;;;13.78;74.81;101140.69;2107795;28;20039;-79
2022/03/31 00:12:02;;;;;;;10.35;2.95;;;;;;;13.79;74.94;101146.00;2109274;28;20447;-79
2022/03/31 00:13:27;;;;;;;5.40;2.05;;;;;;;13.78;75.06;101138.94;2093556;28;20146;-78
2022/03/31 00:14:49;;;;;;;12.73;2.60;;;;;;;13.77;75.08;101142.47;2101253;28;20044;-79
2022/03/31 00:16:11;;;;;;;16.58;4.10;;;;;;;13.77;75.13;101141.56;2106205;28;20479;-78
2022/03/31 00:17:33;;;;;;;11.20;3.58;;;;;;;13.74;75.09;101139.75;2093256;28;20420;-79
2022/03/31 00:18:56;;;;;;;13.18;3.60;;;;;;;13.73;75.05;101137.09;2108640;28;21626;-78
2022/03/31 00:33:17;;;;;;;13.25;4.25;;;;;;;13.57;75.47;101136.09;2112698;28;20047;-79
2022/03/31 00:34:39;;;;;;;12.40;3.90;;;;;;;13.57;75.35;101136.97;2109849;28;20751;-79
2022/03/31 00:36:01;;;;;;;7.65;2.10;;;;;;;13.59;75.42;101138.75;2109260;28;20039;-79
2022/03/31 00:37:40;;;;;;;5.05;2.83;;;;;;;13.62;75.39;101129.03;2099547;28;20465;-79
2022/03/31 00:40:43;;;;;;;5.78;2.72;;;;;;;13.61;75.42;101131.69;2106848;28;20079;-79
2022/03/31 00:42:08;;;;;;;10.00;2.67;;;;;;;13.63;75.51;101143.19;2110254;28;20395;-79
2022/03/31 00:43:31;;;;;;;18.25;4.22;;;;;;;13.63;75.52;101132.59;2095292;28;20054;-79
2022/03/31 00:44:53;;;;;;;11.18;3.30;;;;;;;13.63;75.60;101136.13;2109112;28;20082;-79
2022/03/31 00:46:22;;;;;;;11.77;3.45;;;;;;;13.65;75.65;101137.06;2118848;27;20031;-79
2022/03/31 00:47:43;;;;;;;13.88;3.53;;;;;;;13.65;75.71;101131.75;2103573;28;20056;-79
2022/03/31 00:49:08;;;;;;;9.95;2.47;;;;;;;13.67;75.70;101139.69;2109920;28;20485;-79
2022/03/31 00:50:33;;;;;;;13.52;3.33;;;;;;;13.66;75.72;101140.56;2109211;28;20061;-79
2022/03/31 00:51:55;;;;;;;14.40;4.20;;;;;;;13.65;75.64;101145.00;2105785;28;20135;-79
2022/03/31 00:53:17;;;;;;;;;;;;;;;13.65;75.71;101152.97;2110380;28;20051;-79
2022/03/31 00:54:40;;;;;;;13.73;4.70;;;;;;;13.62;75.74;101150.28;2115673;27;19959;-78
2022/03/31 00:56:06;;;;;;;19.40;5.65;;;;;;;13.61;75.72;101148.50;2111626;28;20134;-79
2022/03/31 00:57:29;;;;;;;16.25;4.07;;;;;;;13.60;75.71;101146.69;2104398;28;20071;-78
2022/03/31 00:58:53;;;;;;;22.25;4.43;;;;;;;13.57;75.71;101147.59;2108392;28;20047;-78
2022/03/31 01:00:17;;;;;;;10.02;3.20;;;;;;;13.57;75.71;101141.38;2105635;28;20032;-79
2022/03/31 01:01:41;;;;;;;24.42;4.78;;;;;;;13.57;75.87;101139.63;2108097;28;20044;-79
2022/03/31 01:03:05;;;;;;;10.88;3.17;;;;;;;13.56;75.91;101131.66;2110587;28;20051;-79
2022/03/31 01:04:30;;;;;;;10.40;2.72;;;;;;;13.55;75.92;101132.50;2120392;27;20047;-79
2022/03/31 01:05:52;;;;;;;12.57;3.78;;;;;;;13.54;76.05;101130.72;2112994;28;20064;-79
2022/03/31 01:07:15;;;;;;;13.57;3.25;;;;;;;13.53;76.04;101124.53;2114068;28;20048;-79
2022/03/31 01:08:37;;;;;;;19.95;4.07;;;;;;;13.54;76.13;101126.31;2111771;28;20822;-79
2022/03/31 01:10:00;;;;;;;19.17;3.22;;;;;;;13.53;76.17;101127.19;2117777;27;20066;-79
2022/03/31 01:11:21;;;;;;;11.52;3.97;;;;;;;13.54;76.12;101114.81;2096959;28;20128;-79
2022/03/31 01:12:46;;;;;;;14.30;4.50;;;;;;;13.53;76.12;101124.53;2100075;28;20048;-80
2022/03/31 01:14:08;;;;;;;13.32;3.28;;;;;;;13.54;76.07;101128.09;2094725;28;20052;-78
2022/03/31 01:15:31;;;;;;;11.95;3.97;;;;;;;13.52;76.00;101121.91;2102912;28;20069;-79
2022/03/31 01:16:54;;;;;;;12.65;4.13;;;;;;;13.52;75.96;101129.84;2111480;28;20130;-79
2022/03/31 01:18:16;;;;;;;12.80;3.58;;;;;;;13.51;75.85;101126.31;2102210;28;20100;-79
2022/03/31 01:19:40;;;;;;;20.80;4.88;;;;;;;13.51;75.88;101128.97;2108395;28;20052;-78
2022/03/31 01:21:03;;;;;;;13.35;4.95;;;;;;;13.49;75.81;101133.34;2109294;28;20051;-79
2022/03/31 01:22:29;;;;;;;20.13;5.13;;;;;;;13.48;75.66;101131.56;2101606;28;20044;-79
2022/03/31 01:23:54;;;;;;;14.40;4.15;;;;;;;13.45;75.71;101117.41;2117461;27;20138;-80
2022/03/31 01:25:18;;;;;;;11.55;4.20;;;;;;;13.43;75.69;101113.84;2104846;28;20036;-78
2022/03/31 01:26:42;;;;;;;12.15;3.97;;;;;;;13.41;75.72;101107.63;2107739;28;20044;-80
2022/03/31 01:28:05;;;;;;;10.05;4.07;;;;;;;13.41;75.88;101100.56;2103166;28;20586;-79
2022/03/31 01:29:27;;;;;;;10.50;3.15;;;;;;;13.41;75.89;101103.22;2099832;28;20141;-78
2022/03/31 01:30:49;;;;;;;16.50;3.53;;;;;;;13.43;76.15;101096.16;2106091;28;20039;-79
2022/03/31 01:32:11;;;;;;;11.77;3.22;;;;;;;13.46;76.23;101104.13;2102268;28;20052;-79
2022/03/31 01:33:35;;;;;;;16.55;3.38;;;;;;;13.48;76.27;101101.50;2094186;28;20048;-80
2022/03/31 01:34:57;;;;;;;14.57;3.60;;;;;;;13.49;76.37;101096.22;2094696;28;20049;-79
2022/03/31 01:36:21;;;;;;;6.60;2.50;;;;;;;13.49;76.28;101093.56;2099804;28;20102;-79
2022/03/31 01:37:44;;;;;;;11.57;3.67;;;;;;;13.53;76.28;101091.81;2107458;28;20056;-79
2022/03/31 01:39:09;;;;;;;9.50;3.35;;;;;;;13.53;76.22;101095.34;2100871;28;20036;-79
2022/03/31 01:40:31;;;;;;;13.77;3.72;;;;;;;13.53;76.23;101094.47;2100382;28;20044;-79
2022/03/31 01:41:53;;;;;;;;;;;;;;;13.55;76.08;101098.94;2106268;28;20047;-79
2022/03/31 01:43:15;;;;;;;6.80;2.35;;;;;;;13.53;76.23;101089.16;2110177;28;20033;-79
2022/03/31 01:44:38;;;;;;;16.60;3.13;;;;;;;13.55;76.20;101101.56;2119002;27;20129;-79
2022/03/31 01:46:00;;;;;;;9.82;5.80;;;;;;;13.56;76.17;101102.47;2112680;28;20071;-79
2022/03/31 01:47:22;;;;;;;18.63;3.80;;;;;;;13.56;76.21;101102.47;2109249;28;20132;-79
2022/03/31 01:48:46;;;;;;;15.05;4.80;;;;;;;13.59;76.07;101104.28;2102548;28;20048;-79
2022/03/31 01:50:10;;;;;;;16.88;3.97;;;;;;;13.60;76.08;101104.25;2106388;28;20066;-79
2022/03/31 01:51:34;;;;;;;14.23;4.95;;;;;;;13.61;75.98;101110.47;2102920;28;20093;-79
2022/03/31 01:52:55;;;;;;;13.60;3.65;;;;;;;13.62;75.96;101109.59;2098706;28;20040;-80
2022/03/31 01:54:20;;;;;;;14.10;4.10;;;;;;;13.64;75.85;101113.16;2110753;28;20036;-79
2022/03/31 01:55:42;;;;;;;14.00;3.22;;;;;;;13.63;75.90;101116.69;2113767;28;20131;-79
2022/03/31 01:57:05;;;;;;;10.73;3.33;;;;;;;13.63;75.89;101116.69;2104556;28;20040;-79
2022/03/31 01:58:28;;;;;;;16.48;4.25;;;;;;;13.64;75.85;101121.09;2102518;28;20040;-79
2022/03/31 01:59:52;;;;;;;14.35;3.88;;;;;;;13.65;75.86;101117.59;2094146;28;20051;-78
2022/03/31 02:01:14;;;;;;;12.68;4.32;;;;;;;13.64;75.75;101115.81;2108245;28;20075;-79
2022/03/31 02:02:39;;;;;;;10.43;3.67;;;;;;;13.63;75.71;101111.38;2107530;27;20100;-79
2022/03/31 02:04:02;;;;;;;11.75;3.28;;;;;;;13.62;75.67;101114.88;2106485;28;20048;-80
2022/03/31 02:05:23;;;;;;;15.45;4.95;;;;;;;13.62;75.67;101109.59;2112815;27;20146;-78
2022/03/31 02:06:46;;;;;;;11.95;3.42;;;;;;;13.61;75.60;101106.03;2102246;28;20041;-79
2022/03/31 02:08:09;;;;;;;9.55;3.45;;;;;;;13.62;75.63;101117.53;2092250;28;20040;-79
2022/03/31 02:09:34;;;;;;;8.30;3.05;;;;;;;13.61;75.72;101106.03;2105141;28;20136;-79
2022/03/31 02:10:57;;;;;;;13.43;3.20;;;;;;;13.62;75.84;101109.59;2108807;28;20441;-79
2022/03/31 02:12:21;;;;;;;19.45;4.28;;;;;;;13.62;75.75;101115.78;2110710;28;20562;-78
2022/03/31 02:13:44;;;;;;;14.13;2.42;;;;;;;13.63;75.71;101112.25;2119641;27;20059;-79
2022/03/31 02:15:07;;;;;;;13.40;3.72;;;;;;;13.65;75.58;101120.25;2113106;28;20043;-79
2022/03/31 02:16:30;;;;;;;9.73;4.72;;;;;;;13.63;75.51;101114.03;2101622;28;20160;-78
2022/03/31 02:17:54;;;;;;;15.60;3.17;;;;;;;13.64;75.44;101115.81;2106501;28;20126;-79
2022/03/31 02:19:17;;;;;;;18.55;4.00;;;;;;;13.62;75.43;101121.09;2111003;28;20047;-78
2022/03/31 02:20:41;;;;;;;15.57;3.47;;;;;;;13.61;75.47;101124.59;2109990;28;20059;-79
2022/03/31 02:22:06;;;;;;;17.98;4.13;;;;;;;13.61;75.35;101115.75;2111220;28;20035;-79
2022/03/31 02:23:29;;;;;;;13.25;3.78;;;;;;;13.60;75.37;101108.66;2104797;28;20135;-79
2022/03/31 02:24:53;;;;;;;8.82;2.95;;;;;;;13.60;75.33;101113.97;2104955;28;20557;-79
2022/03/31 02:26:18;;;;;;;11.73;3.08;;;;;;;13.57;75.38;101105.13;2102203;28;20036;-78
2022/03/31 02:27:42;;;;;;;14.85;4.30;;;;;;;13.58;75.27;101114.00;2110953;28;20077;-79
2022/03/31 02:29:05;;;;;;;9.75;3.67;;;;;;;13.55;75.14;101109.53;2110806;28;20638;-79
2022/03/31 02:30:28;;;;;;;15.77;2.92;;;;;;;13.57;75.32;101112.22;2108715;28;20058;-79
2022/03/31 02:31:51;;;;;;;12.65;3.63;;;;;;;13.56;75.26;101113.97;2110559;28;20056;-79
2022/03/31 02:33:14;;;;;;;13.50;4.45;;;;;;;13.56;75.24;101121.03;2112568;28;20047;-79
2022/03/31 02:34:36;;;;;;;10.18;2.70;;;;;;;13.56;75.24;101121.03;2109776;28;20108;-79
2022/03/31 02:35:59;;;;;;;11.88;3.83;;;;;;;13.56;75.29;101115.72;2109814;28;20914;-79
2022/03/31 02:37:21;;;;;;;9.13;1.55;;;;;;;13.54;75.18;101098.91;2095580;28;20586;-79
2022/03/31 02:38:43;;;;;;;10.18;3.80;;;;;;;13.54;75.25;101113.06;2107064;28;20055;-79
2022/03/31 02:40:09;;;;;;;11.88;2.53;;;;;;;13.56;75.23;101116.63;2110700;28;20067;-80
2022/03/31 02:41:31;;;;;;;11.82;3.35;;;;;;;13.55;75.23;101117.50;2094206;28;20135;-79
2022/03/31 02:42:54;;;;;;;10.15;3.00;;;;;;;13.54;75.16;101118.34;2091438;28;20041;-79
2022/03/31 02:44:17;;;;;;;12.38;3.45;;;;;;;13.53;75.30;101124.53;2099493;28;20040;-79
2022/03/31 02:45:39;;;;;;;23.35;4.10;;;;;;;13.54;75.32;101123.66;2103633;28;20070;-79
2022/03/31 02:47:00;;;;;;;13.40;3.83;;;;;;;13.53;75.32;101121.88;2104392;28;20059;-79
2022/03/31 02:48:23;;;;;;;10.68;2.70;;;;;;;13.54;75.41;101125.44;2110226;28;20416;-80
2022/03/31 02:49:44;;;;;;;13.98;4.22;;;;;;;13.54;75.32;101114.81;2109706;28;20572;-80
2022/03/31 02:51:07;;;;;;;15.82;3.83;;;;;;;13.53;75.17;101119.22;2108999;28;20132;-80
2022/03/31 02:55:24;;;;;;;10.07;3.20;;;;;;;13.53;75.28;101119.22;2102559;28;20404;-80
2022/03/31 02:55:53;;;;;;;10.60;3.58;;;;;;;13.50;75.34;101108.63;2103894;28;20089;-80
2022/03/31 02:57:15;;;;;;;22.50;5.25;;;;;;;13.49;75.31;101104.19;2099500;28;20137;-79
2022/03/31 02:58:38;;;;;;;10.45;3.85;;;;;;;13.48;75.26;101105.03;2107780;28;20550;-80
2022/03/31 03:00:01;;;;;;;14.75;4.68;;;;;;;13.47;75.23;101108.56;2110715;28;20104;-79
2022/03/31 03:01:24;;;;;;;9.75;2.92;;;;;;;13.47;75.41;101112.97;2102033;28;20056;-80
2022/03/31 03:02:45;;;;;;;9.52;3.08;;;;;;;13.45;75.49;101114.75;2105676;28;20500;-79
2022/03/31 03:04:08;;;;;;;10.82;4.30;;;;;;;13.46;75.60;101117.41;2101229;28;20072;-79
2022/03/31 03:05:31;;;;;;;15.25;4.03;;;;;;;13.45;75.67;101113.00;2109512;28;20575;-79
2022/03/31 03:06:54;;;;;;;9.82;2.92;;;;;;;13.46;75.62;101114.75;2108461;28;20056;-79
2022/03/31 03:08:16;;;;;;;11.15;3.78;;;;;;;13.47;75.85;101116.53;2110633;28;20046;-79
2022/03/31 03:09:38;;;;;;;15.68;3.17;;;;;;;13.47;75.83;101103.25;2108630;28;20139;-79
2022/03/31 03:11:02;;;;;;;26.25;4.45;;;;;;;13.49;75.98;101105.94;2110012;28;20154;-80
2022/03/31 03:12:25;;;;;;;7.75;2.53;;;;;;;13.49;76.19;101111.25;2102129;28;20106;-79
2022/03/31 03:13:48;;;;;;;9.98;3.42;;;;;;;13.51;76.20;101117.47;2106249;28;20043;-79
2022/03/31 03:15:13;;;;;;;16.38;4.38;;;;;;;13.51;76.15;101117.47;2100934;28;20101;-80
2022/03/31 03:16:34;;;;;;;8.02;2.65;;;;;;;13.49;76.20;101109.47;2104588;28;20043;-79
2022/03/31 03:17:57;;;;;;;23.75;4.28;;;;;;;13.50;76.12;101110.38;2100130;28;20058;-79
2022/03/31 03:19:18;;;;;;;13.30;3.88;;;;;;;13.50;76.20;101115.69;2098626;28;20028;-80
2022/03/31 03:20:41;;;;;;;8.35;3.22;;;;;;;13.51;76.32;101117.47;2107853;28;20121;-80
2022/03/31 03:22:03;;;;;;;12.55;4.10;;;;;;;13.51;76.27;101118.34;2107166;28;20507;-79
2022/03/31 03:23:25;;;;;;;15.45;3.63;;;;;;;13.52;76.31;101116.59;2102111;28;20529;-80
2022/03/31 03:24:48;;;;;;;13.65;5.13;;;;;;;13.52;76.19;101120.09;2104741;28;20044;-80
2022/03/31 03:26:12;;;;;;;16.33;5.15;;;;;;;13.53;76.35;101113.03;2114340;27;20094;-78
2022/03/31 03:27:34;;;;;;;10.32;3.38;;;;;;;13.52;76.26;101116.59;2113128;28;20040;-80
2022/03/31 03:28:57;;;;;;;16.27;3.60;;;;;;;13.51;76.31;101102.44;2109726;28;20118;-79
2022/03/31 03:30:20;;;;;;;15.88;4.70;;;;;;;13.52;76.27;101108.63;2108237;28;20047;-79
2022/03/31 03:31:43;;;;;;;16.02;3.83;;;;;;;13.51;76.20;101113.03;2118876;28;20051;-79
2022/03/31 03:33:06;;;;;;;18.33;4.28;;;;;;;13.51;76.31;101107.75;2111696;28;20147;-80
2022/03/31 03:34:27;;;;;;;19.83;4.10;;;;;;;13.50;76.24;101113.91;2109215;28;20071;-80
2022/03/31 03:35:50;;;;;;;7.70;2.13;;;;;;;13.51;76.27;101110.41;2102000;28;20044;-79
2022/03/31 03:37:13;;;;;;;14.80;4.22;;;;;;;13.52;76.13;101098.88;2106620;28;20052;-79
2022/03/31 03:38:34;;;;;;;16.48;3.70;;;;;;;13.60;76.24;101104.25;2109327;28;20495;-79
2022/03/31 03:39:57;;;;;;;6.95;2.70;;;;;;;13.65;76.31;101109.63;2110073;28;20100;-79
2022/03/31 03:41:21;;;;;;;21.08;5.20;;;;;;;13.70;76.06;101102.59;2109482;28;20043;-79
2022/03/31 03:42:43;;;;;;;16.80;4.25;;;;;;;13.71;76.04;101107.91;2102055;28;20086;-79
2022/03/31 03:44:05;;;;;;;29.02;4.78;;;;;;;13.73;75.92;101102.59;2106512;28;20036;-79
2022/03/31 03:45:28;;;;;;;22.45;3.60;;;;;;;13.75;75.99;101092.91;2109371;28;20071;-80
2022/03/31 03:46:51;;;;;;;23.25;6.15;;;;;;;13.78;75.89;101093.81;2118184;28;20051;-79
2022/03/31 03:48:13;;;;;;;17.30;4.40;;;;;;;13.81;75.90;101090.28;2107374;28;20730;-79
2022/03/31 03:49:36;;;;;;;19.50;4.78;;;;;;;13.85;75.83;101081.47;2102073;28;20139;-80
2022/03/31 03:50:59;;;;;;;14.73;5.00;;;;;;;13.87;75.77;101079.72;2111018;28;20040;-77
2022/03/31 03:52:21;;;;;;;16.10;4.43;;;;;;;13.90;75.72;101085.94;2099298;28;20047;-79
2022/03/31 03:53:43;;;;;;;16.17;3.70;;;;;;;13.92;75.65;101084.16;2104164;28;20043;-80
2022/03/31 03:55:06;;;;;;;16.80;3.95;;;;;;;13.94;75.68;101087.72;2102011;28;20038;-79
2022/03/31 03:56:30;;;;;;;24.20;4.82;;;;;;;13.98;75.71;101087.78;2107373;28;20146;-79
2022/03/31 03:57:52;;;;;;;20.63;5.28;;;;;;;14.02;75.60;101089.56;2113002;28;20609;-79
2022/03/31 03:59:14;;;;;;;19.45;5.70;;;;;;;14.02;75.52;101086.91;2110105;28;20445;-78
2022/03/31 04:00:37;;;;;;;21.88;5.00;;;;;;;14.04;75.49;101082.50;2098810;28;20147;-80
2022/03/31 04:02:00;;;;;;;19.73;4.57;;;;;;;14.06;75.39;101092.22;2107621;28;20048;-80
2022/03/31 04:03:23;;;;;;;19.58;4.13;;;;;;;14.09;75.39;101080.75;2110070;28;20549;-79
2022/03/31 04:04:46;;;;;;;19.35;4.85;;;;;;;14.13;75.24;101085.19;2110436;28;20503;-79
2022/03/31 04:06:08;;;;;;;24.40;4.70;;;;;;;14.13;74.97;101074.56;2104643;28;20123;-79
2022/03/31 04:07:30;;;;;;;23.38;5.43;;;;;;;14.14;75.17;101082.56;2101075;28;20135;-79
2022/03/31 04:08:53;;;;;;;38.83;6.38;;;;;;;14.15;75.21;101068.41;2093572;28;20527;-79
2022/03/31 04:10:15;;;;;;;10.65;3.17;;;;;;;14.17;75.17;101071.97;2091010;28;20052;-79
2022/03/31 04:11:38;;;;;;;20.63;4.75;;;;;;;14.22;75.13;101067.56;2108422;28;20043;-80
2022/03/31 04:13:02;;;;;;;24.38;5.05;;;;;;;14.25;75.02;101074.63;2112893;28;20109;-79
2022/03/31 04:14:24;;;;;;;20.95;3.78;;;;;;;14.23;75.16;101069.34;2120002;27;20066;-79
2022/03/31 04:15:47;;;;;;;19.58;4.65;;;;;;;14.26;75.11;101071.13;2104623;28;20040;-79
2022/03/31 04:17:09;;;;;;;29.33;4.47;;;;;;;14.27;75.16;101079.09;2110580;28;20035;-79
2022/03/31 04:18:32;;;;;;;29.17;8.45;;;;;;;14.29;75.02;101080.00;2118192;27;20039;-79
2022/03/31 04:19:54;;;;;;;21.00;5.85;;;;;;;14.32;75.06;101081.75;2114445;28;20055;-79
2022/03/31 04:21:17;;;;;;;20.65;5.25;;;;;;;14.34;75.11;101082.66;2101564;28;20071;-79
2022/03/31 04:22:40;;;;;;;17.52;5.18;;;;;;;14.38;74.87;101072.97;2103127;28;20108;-79
2022/03/31 04:24:02;;;;;;;26.35;7.30;;;;;;;14.40;74.84;101071.22;2105558;28;20507;-78
2022/03/31 04:25:25;;;;;;;29.60;7.18;;;;;;;14.44;74.80;101067.72;2114464;28;20035;-79
2022/03/31 04:26:48;;;;;;;15.15;4.20;;;;;;;14.45;74.69;101067.69;2111672;28;20145;-79
2022/03/31 04:28:11;;;;;;;27.77;4.75;;;;;;;14.50;74.58;101075.72;2102588;28;20759;-79
2022/03/31 04:29:33;;;;;;;22.02;6.15;;;;;;;14.55;74.27;101074.84;2108339;28;20472;-79
2022/03/31 04:30:54;;;;;;;20.45;6.28;;;;;;;14.60;74.11;101077.50;2101681;28;20139;-79
2022/03/31 04:32:17;;;;;;;20.77;4.53;;;;;;;14.65;73.72;101076.66;2111555;28;20142;-80
2022/03/31 04:33:39;;;;;;;21.98;5.95;;;;;;;14.69;73.49;101078.44;2111729;28;20079;-80
2022/03/31 04:35:02;;;;;;;21.42;5.00;;;;;;;14.75;73.33;101064.28;2110636;28;20642;-80
2022/03/31 04:36:24;;;;;;;17.73;3.70;;;;;;;14.78;72.95;101061.63;2110329;28;20622;-79
2022/03/31 04:37:47;;;;;;;23.75;5.25;;;;;;;14.81;72.90;101056.34;2111937;28;20052;-79
2022/03/31 04:39:10;;;;;;;24.67;5.60;;;;;;;14.85;72.70;101054.56;2115041;27;20096;-80
2022/03/31 04:40:34;;;;;;;21.73;5.57;;;;;;;14.89;72.71;101040.41;2114478;27;20109;-79
2022/03/31 04:41:58;;;;;;;22.20;4.45;;;;;;;14.94;72.36;101044.84;2102650;28;20075;-79
2022/03/31 04:43:21;;;;;;;24.13;5.20;;;;;;;14.95;72.51;101046.63;2108710;28;20581;-79
2022/03/31 04:44:43;;;;;;;21.27;4.30;;;;;;;14.97;72.39;101044.84;2102572;28;20036;-79
2022/03/31 04:46:06;;;;;;;21.10;4.85;;;;;;;14.99;72.45;101045.75;2115258;27;20041;-79
2022/03/31 04:47:27;;;;;;;26.42;6.70;;;;;;;15.00;72.27;101057.28;2106206;28;20048;-79
2022/03/31 04:48:50;;;;;;;25.48;6.03;;;;;;;15.03;72.10;101060.81;2101839;28;20056;-79
2022/03/31 04:50:14;;;;;;;24.27;5.15;;;;;;;15.08;71.95;101059.06;2108960;28;20815;-79
2022/03/31 04:51:36;;;;;;;12.77;3.90;;;;;;;15.12;71.83;101065.25;2110346;28;20632;-79
2022/03/31 04:52:59;;;;;;;20.02;4.07;;;;;;;15.17;71.73;101071.47;2118968;27;20095;-80
2022/03/31 04:54:20;;;;;;;20.45;4.38;;;;;;;15.23;71.59;101068.81;2113219;28;20537;-80
2022/03/31 04:55:42;;;;;;;19.90;4.07;;;;;;;15.29;71.42;101081.28;2111343;28;20047;-80
2022/03/31 04:57:08;;;;;;;18.00;4.03;;;;;;;15.37;71.36;101076.81;2111037;28;20449;-80
2022/03/31 04:58:31;;;;;;;22.05;5.57;;;;;;;15.42;71.20;101085.72;2112061;28;20035;-80
2022/03/31 04:59:53;;;;;;;23.60;5.50;;;;;;;15.44;71.11;101084.81;2104517;28;20051;-80
2022/03/31 05:01:16;;;;;;;26.75;4.88;;;;;;;15.49;70.66;101104.31;2099655;28;20073;-79
2022/03/31 05:02:39;;;;;;;29.60;5.07;;;;;;;15.54;70.64;101097.28;2104421;28;20458;-80
2022/03/31 05:04:06;;;;;;;11.65;3.13;;;;;;;15.62;70.30;101107.91;2099251;28;20047;-81
2022/03/31 05:05:46;;;;;;;18.52;3.53;;;;;;;15.65;70.02;101123.00;2105873;28;20044;-80
2022/03/31 05:07:10;;;;;;;22.02;4.90;;;;;;;15.71;69.96;101115.91;2111441;28;20047;-78
2022/03/31 05:08:32;;;;;;;21.35;4.53;;;;;;;15.76;69.65;101130.09;2109382;28;20128;-78
2022/03/31 05:09:56;;;;;;;11.57;2.72;;;;;;;15.82;69.47;101132.78;2103240;28;20198;-79
2022/03/31 05:11:22;;;;;;;9.98;3.28;;;;;;;15.90;69.43;101135.44;2103232;28;20043;-79
2022/03/31 05:12:47;;;;;;;29.95;4.38;;;;;;;15.97;69.32;101139.88;2106017;28;20036;-79
2022/03/31 05:14:10;;;;;;;16.30;3.10;;;;;;;16.06;69.48;101136.31;2111048;28;20046;-80
2022/03/31 05:15:36;;;;;;;17.02;3.53;;;;;;;16.12;69.35;101146.97;2103195;28;20726;-79
2022/03/31 05:17:01;;;;;;;24.63;4.45;;;;;;;16.16;69.22;101149.63;2098715;28;20657;-80
2022/03/31 05:18:25;;;;;;;25.23;3.90;;;;;;;16.25;68.92;101140.75;2105550;28;20345;-79
2022/03/31 05:19:48;;;;;;;21.77;4.28;;;;;;;16.31;68.90;101146.06;2111614;27;20542;-79
2022/03/31 05:21:10;;;;;;;26.38;5.18;;;;;;;16.37;68.87;101148.72;2101717;28;20040;-80
2022/03/31 05:22:35;;;;;;;18.55;4.43;;;;;;;16.44;68.69;101147.81;2098824;28;20535;-80
2022/03/31 05:23:57;;;;;;;20.70;3.35;;;;;;;16.47;68.20;101154.94;2109086;28;20047;-79
2022/03/31 05:25:20;;;;;;;25.13;5.63;;;;;;;16.49;67.80;101154.00;2108793;28;20113;-79
2022/03/31 05:26:42;;;;;;;19.25;4.57;;;;;;;16.47;67.39;101142.50;2109676;27;20039;-79
2022/03/31 05:28:11;;;;;;;15.15;2.67;;;;;;;16.51;67.22;101143.34;2117953;27;20043;-79
2022/03/31 05:29:34;;;;;;;16.10;3.40;;;;;;;16.57;67.20;101140.66;2109709;28;20055;-80
2022/03/31 05:31:03;;;;;;;25.33;5.25;;;;;;;16.64;67.05;101129.13;2109425;28;20048;-79
2022/03/31 05:32:28;;;;;;;17.75;5.22;;;;;;;16.69;66.79;101127.34;2110515;28;20147;-80
2022/03/31 05:33:50;;;;;;;33.42;7.35;;;;;;;16.72;66.37;101133.56;2110764;28;20051;-80
2022/03/31 05:35:13;;;;;;;28.77;5.68;;;;;;;16.82;66.62;101122.84;2101994;28;20508;-80
2022/03/31 05:36:37;;;;;;;13.55;2.72;;;;;;;16.91;66.43;101123.69;2102844;28;20464;-80
2022/03/31 05:38:00;;;;;;;18.42;4.78;;;;;;;16.97;65.99;101128.09;2099220;28;20059;-80
2022/03/31 05:39:26;;;;;;;20.98;4.78;;;;;;;17.03;65.76;101128.06;2102989;28;20044;-79
2022/03/31 05:40:48;;;;;;;21.73;3.30;;;;;;;17.05;65.44;101132.53;2108265;28;20134;-80
2022/03/31 05:42:11;;;;;;;34.72;6.45;;;;;;;17.14;65.59;101134.25;2093646;28;20044;-80
2022/03/31 05:43:34;;;;;;;18.35;4.20;;;;;;;17.23;65.35;101117.28;2106136;28;20059;-80
2022/03/31 05:45:04;;;;;;;21.83;5.68;;;;;;;17.25;65.08;101118.19;2111539;28;20043;-80
2022/03/31 05:46:28;;;;;;;18.08;4.65;;;;;;;17.21;64.81;101127.09;2101421;28;20097;-79
2022/03/31 05:47:51;;;;;;;18.02;4.30;;;;;;;17.17;64.75;101112.88;2100732;28;20056;-79
2022/03/31 05:49:14;;;;;;;21.92;4.35;;;;;;;17.11;64.75;101120.94;2102556;28;20143;-80
2022/03/31 05:50:37;;;;;;;20.92;4.78;;;;;;;17.08;64.54;101121.81;2104543;28;20147;-81
2022/03/31 05:51:59;;;;;;;16.90;4.53;;;;;;;17.08;64.69;101119.16;2109443;28;20052;-79
2022/03/31 05:53:22;;;;;;;23.50;4.78;;;;;;;17.10;64.70;101121.81;2104198;28;20040;-80
2022/03/31 05:54:43;;;;;;;25.45;5.40;;;;;;;17.12;64.78;101122.72;2101202;28;20039;-80
2022/03/31 05:56:06;;;;;;;26.35;5.82;;;;;;;17.12;64.71;101118.25;2107040;28;20047;-79
2022/03/31 05:57:29;;;;;;;19.70;4.43;;;;;;;17.13;64.73;101114.66;2111085;28;20046;-80
2022/03/31 05:58:56;;;;;;;19.92;4.40;;;;;;;17.18;64.55;101127.13;2110561;28;20152;-80
2022/03/31 06:00:20;;;;;;;25.33;5.70;;;;;;;17.25;64.39;101120.84;2109768;28;20122;-80
2022/03/31 06:01:44;;;;;;;24.85;6.72;;;;;;;17.38;64.25;101122.56;2102349;28;20040;-79
2022/03/31 06:03:07;;;;;;;15.95;4.13;;;;;;;17.49;64.04;101126.03;2104565;28;20483;-80
2022/03/31 06:04:30;;;;;;;30.02;6.28;;;;;;;17.58;63.65;101117.97;2100995;28;20044;-80
2022/03/31 06:05:53;;;;;;;14.32;3.70;;;;;;;17.61;62.91;101127.75;2105362;28;20313;-79
2022/03/31 06:07:17;;;;;;;28.33;4.25;;;;;;;17.65;62.90;101122.41;2093214;28;20500;-79
2022/03/31 06:08:39;;;;;;;19.45;5.55;;;;;;;17.76;62.81;101123.19;2094153;28;20044;-79
2022/03/31 06:10:01;;;;;;;22.83;4.38;;;;;;;17.86;62.49;101122.19;2105139;28;20039;-80
2022/03/31 06:11:26;;;;;;;20.70;5.30;;;;;;;17.96;62.27;101125.69;2102920;28;20044;-80
2022/03/31 06:12:53;;;;;;;25.83;5.65;;;;;;;18.13;62.02;101123.75;2110974;28;20046;-80
2022/03/31 06:14:19;;;;;;;24.80;6.35;;;;;;;18.17;61.42;101117.47;2101857;28;20067;-80
2022/03/31 06:15:42;;;;;;;16.17;5.40;;;;;;;18.19;61.52;101107.63;2097016;28;20048;-80
2022/03/31 06:17:08;;;;;;;20.27;4.60;;;;;;;18.24;61.34;101116.53;2102170;28;20063;-80
2022/03/31 06:18:33;;;;;;;13.93;4.63;;;;;;;18.38;61.24;101120.84;2097593;28;20426;-80
2022/03/31 06:19:54;;;;;;;25.10;5.95;;;;;;;18.54;61.39;101120.66;2106756;28;20533;-80
2022/03/31 06:21:17;;;;;;;21.15;4.43;;;;;;;18.73;61.09;101121.34;2101793;28;20067;-80
2022/03/31 06:22:40;;;;;;;31.00;6.10;;;;;;;18.89;61.05;101108.66;2101136;28;20051;-80
2022/03/31 06:24:03;;;;;;;19.10;5.90;;;;;;;19.04;60.21;101079.00;2106250;28;20035;-79
2022/03/31 06:25:25;;;;;;;31.48;6.80;;;;;;;18.99;59.58;101103.16;2096258;28;20127;-80
2022/03/31 06:26:48;;;;;;;27.80;5.75;;;;;;;19.01;59.92;101096.00;2106800;28;20483;-80
2022/03/31 06:28:11;;;;;;;25.33;5.22;;;;;;;19.06;59.84;101087.91;2096954;28;20032;-80
2022/03/31 06:29:35;;;;;;;27.38;6.68;;;;;;;19.02;59.48;101070.13;2099954;28;20098;-80
2022/03/31 06:31:01;;;;;;;21.25;6.70;;;;;;;18.92;59.64;101081.84;2107341;27;20046;-78
2022/03/31 06:32:23;;;;;;;30.23;12.82;;;;;;;18.92;59.88;101090.78;2100575;28;20584;-80
2022/03/31 06:33:46;;;;;;;34.38;8.52;;;;;;;18.90;60.02;101089.94;2102239;28;20078;-80
2022/03/31 06:35:15;;;;;;;34.75;7.20;;;;;;;18.89;59.97;101090.84;2111360;28;20051;-80
2022/03/31 06:36:38;;;;;;;24.00;6.15;;;;;;;18.82;59.92;101073.09;2109577;28;20085;-81
2022/03/31 06:38:01;;;;;;;17.80;5.40;;;;;;;18.75;60.20;101063.38;2110730;28;20045;-81
2022/03/31 06:39:23;;;;;;;25.83;5.93;;;;;;;18.67;60.16;101047.41;2102016;28;20109;-80
2022/03/31 06:41:06;;;;;;;25.30;6.50;;;;;;;18.62;60.84;101072.47;2106417;28;20063;-80